UAL4643 KLAX-KSAN
Flight info
| Callsign | UAL4643 |
|---|---|
| Flight time | 0h 31m |
| Altitude | 13000 |
| Route | KLAX LAXX1 MZB KSAN |
| Aircraft | A320/M-S/L |
Departure
| Time | 2026-05-06 21:16 |
|---|---|
| Airport | Los Angeles International Airport (KLAX) |
Arrival
| Time | 2026-05-06 21:48 |
|---|---|
| Airport | San Diego International Airport (KSAN) |
| Time | Latitude | Longitude | Altitude | Speed | Heading |
|---|---|---|---|---|---|
| 2026-05-06 20:58 | 33.94674 | -118.40334 | 129 ft | 0 kts | 263° |
| 2026-05-06 21:10 | 33.94675 | -118.40319 | 124 ft | 2 kts | 263° |
| 2026-05-06 21:10 | 33.94677 | -118.40300 | 124 ft | 2 kts | 263° |
| 2026-05-06 21:11 | 33.94680 | -118.40280 | 124 ft | 2 kts | 269° |
| 2026-05-06 21:11 | 33.94674 | -118.40263 | 123 ft | 2 kts | 336° |
| 2026-05-06 21:11 | 33.94660 | -118.40261 | 123 ft | 0 kts | 36° |
| 2026-05-06 21:11 | 33.94661 | -118.40261 | 123 ft | 0 kts | 30° |
| 2026-05-06 21:13 | 33.94662 | -118.40261 | 123 ft | 0 kts | 27° |
| 2026-05-06 21:13 | 33.94680 | -118.40253 | 124 ft | 5 kts | 12° |
| 2026-05-06 21:13 | 33.94720 | -118.40255 | 126 ft | 8 kts | 352° |
| 2026-05-06 21:14 | 33.94794 | -118.40268 | 126 ft | 13 kts | 348° |
| 2026-05-06 21:14 | 33.94879 | -118.40277 | 126 ft | 12 kts | 25° |
| 2026-05-06 21:14 | 33.94907 | -118.40190 | 126 ft | 13 kts | 83° |
| 2026-05-06 21:14 | 33.94921 | -118.40055 | 126 ft | 19 kts | 83° |
| 2026-05-06 21:15 | 33.94953 | -118.39926 | 125 ft | 7 kts | 34° |
| 2026-05-06 21:15 | 33.94958 | -118.39923 | 125 ft | 2 kts | 34° |
| 2026-05-06 21:15 | 33.94993 | -118.39913 | 126 ft | 8 kts | 356° |
| 2026-05-06 21:15 | 33.95039 | -118.39948 | 126 ft | 7 kts | 281° |
| 2026-05-06 21:16 | 33.95033 | -118.40040 | 125 ft | 25 kts | 263° |
| 2026-05-06 21:16 | 33.94968 | -118.40667 | 129 ft | 128 kts | 263° |
| 2026-05-06 21:16 | 33.94830 | -118.42026 | 431 ft | 183 kts | 262° |
| 2026-05-06 21:16 | 33.94676 | -118.43692 | 962 ft | 220 kts | 261° |
| 2026-05-06 21:17 | 33.94493 | -118.45725 | 1600 ft | 266 kts | 263° |
| 2026-05-06 21:17 | 33.94293 | -118.48037 | 2363 ft | 273 kts | 264° |
| 2026-05-06 21:17 | 33.93794 | -118.50134 | 3029 ft | 253 kts | 240° |
| 2026-05-06 21:17 | 33.92573 | -118.51529 | 3624 ft | 240 kts | 203° |
| 2026-05-06 21:18 | 33.90999 | -118.51969 | 4202 ft | 226 kts | 190° |
| 2026-05-06 21:18 | 33.89483 | -118.52271 | 4724 ft | 217 kts | 188° |
| 2026-05-06 21:18 | 33.88031 | -118.52305 | 5167 ft | 207 kts | 163° |
| 2026-05-06 21:18 | 33.86903 | -118.51430 | 5580 ft | 192 kts | 122° |
| 2026-05-06 21:19 | 33.86048 | -118.50122 | 5909 ft | 207 kts | 128° |
| 2026-05-06 21:19 | 33.85050 | -118.48800 | 6312 ft | 218 kts | 131° |
| 2026-05-06 21:19 | 33.83981 | -118.47455 | 6751 ft | 226 kts | 126° |
| 2026-05-06 21:19 | 33.83207 | -118.45804 | 7205 ft | 228 kts | 104° |
| 2026-05-06 21:20 | 33.82854 | -118.43941 | 7732 ft | 230 kts | 95° |
| 2026-05-06 21:20 | 33.82709 | -118.42671 | 8094 ft | 233 kts | 94° |
| 2026-05-06 21:20 | 33.82380 | -118.40019 | 8637 ft | 250 kts | 96° |
| 2026-05-06 21:20 | 33.82083 | -118.37886 | 8936 ft | 266 kts | 96° |
| 2026-05-06 21:21 | 33.81770 | -118.35651 | 9403 ft | 273 kts | 96° |
| 2026-05-06 21:21 | 33.81439 | -118.33394 | 10020 ft | 275 kts | 96° |
| 2026-05-06 21:21 | 33.81094 | -118.31131 | 10563 ft | 276 kts | 96° |
| 2026-05-06 21:21 | 33.80746 | -118.28840 | 11067 ft | 281 kts | 96° |
| 2026-05-06 21:22 | 33.80396 | -118.26510 | 11558 ft | 285 kts | 96° |
| 2026-05-06 21:22 | 33.80046 | -118.24157 | 12065 ft | 288 kts | 96° |
| 2026-05-06 21:22 | 33.79692 | -118.21766 | 12532 ft | 292 kts | 96° |
| 2026-05-06 21:22 | 33.79338 | -118.19380 | 12951 ft | 294 kts | 96° |
| 2026-05-06 21:23 | 33.78978 | -118.16962 | 13097 ft | 295 kts | 96° |
| 2026-05-06 21:23 | 33.78615 | -118.14532 | 13102 ft | 296 kts | 96° |
| 2026-05-06 21:23 | 33.78251 | -118.12090 | 13072 ft | 297 kts | 96° |
| 2026-05-06 21:23 | 33.77886 | -118.09644 | 13080 ft | 297 kts | 96° |
| 2026-05-06 21:24 | 33.77522 | -118.07206 | 13081 ft | 297 kts | 97° |
| 2026-05-06 21:24 | 33.76848 | -118.04854 | 13077 ft | 303 kts | 117° |
| 2026-05-06 21:24 | 33.75472 | -118.02896 | 13076 ft | 309 kts | 131° |
| 2026-05-06 21:24 | 33.73930 | -118.01099 | 13102 ft | 308 kts | 127° |
| 2026-05-06 21:25 | 33.72598 | -117.99097 | 13102 ft | 307 kts | 126° |
| 2026-05-06 21:25 | 33.71073 | -117.97275 | 13105 ft | 311 kts | 135° |
| 2026-05-06 21:25 | 33.69411 | -117.95594 | 13103 ft | 312 kts | 136° |
| 2026-05-06 21:25 | 33.67749 | -117.93932 | 13117 ft | 311 kts | 135° |
| 2026-05-06 21:26 | 33.66097 | -117.92247 | 13106 ft | 311 kts | 135° |
| 2026-05-06 21:26 | 33.64565 | -117.90477 | 13109 ft | 309 kts | 128° |
| 2026-05-06 21:26 | 33.63149 | -117.88536 | 13106 ft | 308 kts | 126° |
| 2026-05-06 21:26 | 33.61818 | -117.86520 | 13117 ft | 307 kts | 122° |
| 2026-05-06 21:27 | 33.60520 | -117.84483 | 13113 ft | 309 kts | 128° |
| 2026-05-06 21:27 | 33.58960 | -117.82692 | 13111 ft | 312 kts | 135° |
| 2026-05-06 21:27 | 33.57301 | -117.81008 | 13106 ft | 312 kts | 136° |
| 2026-05-06 21:27 | 33.55638 | -117.79332 | 13114 ft | 312 kts | 135° |
| 2026-05-06 21:28 | 33.53995 | -117.77629 | 13114 ft | 312 kts | 134° |
| 2026-05-06 21:28 | 33.52371 | -117.75898 | 13118 ft | 312 kts | 134° |
| 2026-05-06 21:28 | 33.50751 | -117.74160 | 13114 ft | 312 kts | 134° |
| 2026-05-06 21:28 | 33.49682 | -117.73012 | 13113 ft | 312 kts | 134° |
| 2026-05-06 21:29 | 33.48084 | -117.71257 | 13106 ft | 311 kts | 133° |
| 2026-05-06 21:29 | 33.46492 | -117.69500 | 13111 ft | 311 kts | 133° |
| 2026-05-06 21:29 | 33.44907 | -117.67729 | 13097 ft | 312 kts | 133° |
| 2026-05-06 21:29 | 33.43322 | -117.65953 | 13094 ft | 312 kts | 133° |
| 2026-05-06 21:30 | 33.41887 | -117.64036 | 13102 ft | 307 kts | 120° |
| 2026-05-06 21:30 | 33.40845 | -117.61817 | 13093 ft | 306 kts | 116° |
| 2026-05-06 21:30 | 33.39578 | -117.59756 | 13108 ft | 310 kts | 128° |
| 2026-05-06 21:30 | 33.38068 | -117.57903 | 13101 ft | 312 kts | 132° |
| 2026-05-06 21:31 | 33.36493 | -117.56118 | 13108 ft | 312 kts | 133° |
| 2026-05-06 21:31 | 33.34909 | -117.54344 | 13094 ft | 312 kts | 133° |
| 2026-05-06 21:31 | 33.33323 | -117.52569 | 13096 ft | 312 kts | 133° |
| 2026-05-06 21:31 | 33.31737 | -117.50794 | 13096 ft | 312 kts | 133° |
| 2026-05-06 21:32 | 33.30153 | -117.49022 | 13096 ft | 312 kts | 133° |
| 2026-05-06 21:32 | 33.26992 | -117.45467 | 13100 ft | 311 kts | 133° |
| 2026-05-06 21:32 | 33.25422 | -117.43691 | 13066 ft | 310 kts | 133° |
| 2026-05-06 21:33 | 33.23855 | -117.41925 | 12658 ft | 309 kts | 135° |
| 2026-05-06 21:33 | 33.22075 | -117.40539 | 12206 ft | 313 kts | 153° |
| 2026-05-06 21:33 | 33.20002 | -117.39644 | 11761 ft | 313 kts | 160° |
| 2026-05-06 21:33 | 33.17946 | -117.38902 | 11330 ft | 311 kts | 161° |
| 2026-05-06 21:34 | 33.15876 | -117.38167 | 10899 ft | 309 kts | 161° |
| 2026-05-06 21:34 | 33.13825 | -117.37418 | 10485 ft | 307 kts | 160° |
| 2026-05-06 21:34 | 33.11796 | -117.36651 | 10069 ft | 305 kts | 160° |
| 2026-05-06 21:34 | 33.09780 | -117.35884 | 9611 ft | 303 kts | 160° |
| 2026-05-06 21:35 | 33.07783 | -117.35120 | 9167 ft | 300 kts | 160° |
| 2026-05-06 21:35 | 33.05806 | -117.34359 | 8722 ft | 297 kts | 160° |
| 2026-05-06 21:35 | 33.03852 | -117.33605 | 8288 ft | 294 kts | 160° |
| 2026-05-06 21:35 | 33.01904 | -117.32852 | 7872 ft | 292 kts | 160° |
| 2026-05-06 21:36 | 32.99986 | -117.32077 | 7467 ft | 290 kts | 158° |
| 2026-05-06 21:36 | 32.98093 | -117.31265 | 7039 ft | 289 kts | 158° |
| 2026-05-06 21:36 | 32.96236 | -117.30462 | 6626 ft | 286 kts | 158° |
| 2026-05-06 21:36 | 32.94393 | -117.29666 | 6195 ft | 285 kts | 158° |
| 2026-05-06 21:37 | 32.92548 | -117.28871 | 5911 ft | 277 kts | 158° |
| 2026-05-06 21:37 | 32.90774 | -117.28100 | 5749 ft | 265 kts | 158° |
| 2026-05-06 21:37 | 32.89113 | -117.27286 | 5595 ft | 252 kts | 146° |
| 2026-05-06 21:37 | 32.87924 | -117.25870 | 5429 ft | 237 kts | 119° |
| 2026-05-06 21:38 | 32.87174 | -117.24160 | 5223 ft | 230 kts | 111° |
| 2026-05-06 21:38 | 32.86516 | -117.22446 | 5119 ft | 227 kts | 112° |
| 2026-05-06 21:38 | 32.85870 | -117.20732 | 5114 ft | 227 kts | 111° |
| 2026-05-06 21:38 | 32.85238 | -117.19004 | 5116 ft | 227 kts | 111° |
| 2026-05-06 21:39 | 32.84617 | -117.17276 | 5098 ft | 227 kts | 110° |
| 2026-05-06 21:39 | 32.83998 | -117.15546 | 5104 ft | 227 kts | 111° |
| 2026-05-06 21:39 | 32.83385 | -117.13821 | 5093 ft | 226 kts | 110° |
| 2026-05-06 21:39 | 32.82773 | -117.12094 | 5100 ft | 227 kts | 111° |
| 2026-05-06 21:40 | 32.82150 | -117.10373 | 5103 ft | 226 kts | 111° |
| 2026-05-06 21:40 | 32.81533 | -117.08651 | 5106 ft | 227 kts | 110° |
| 2026-05-06 21:40 | 32.80917 | -117.06938 | 5095 ft | 221 kts | 111° |
| 2026-05-06 21:40 | 32.80341 | -117.05307 | 5071 ft | 206 kts | 110° |
| 2026-05-06 21:41 | 32.79795 | -117.03793 | 5080 ft | 195 kts | 110° |
| 2026-05-06 21:41 | 32.79268 | -117.02314 | 5090 ft | 194 kts | 111° |
| 2026-05-06 21:41 | 32.78749 | -117.00825 | 5092 ft | 196 kts | 111° |
| 2026-05-06 21:41 | 32.78227 | -116.99334 | 5094 ft | 195 kts | 110° |
| 2026-05-06 21:42 | 32.77704 | -116.97865 | 4946 ft | 195 kts | 111° |
| 2026-05-06 21:42 | 32.77181 | -116.96381 | 4690 ft | 194 kts | 110° |
| 2026-05-06 21:42 | 32.76636 | -116.94914 | 4442 ft | 194 kts | 118° |
| 2026-05-06 21:42 | 32.75644 | -116.93835 | 4164 ft | 197 kts | 155° |
| 2026-05-06 21:43 | 32.74325 | -116.93399 | 4066 ft | 198 kts | 169° |
| 2026-05-06 21:43 | 32.72965 | -116.93156 | 4085 ft | 198 kts | 176° |
| 2026-05-06 21:43 | 32.71651 | -116.93531 | 4083 ft | 196 kts | 214° |
| 2026-05-06 21:43 | 32.70777 | -116.94738 | 4077 ft | 195 kts | 242° |
| 2026-05-06 21:44 | 32.70165 | -116.96184 | 4044 ft | 197 kts | 248° |
| 2026-05-06 21:44 | 32.69642 | -116.97702 | 4098 ft | 199 kts | 249° |
| 2026-05-06 21:44 | 32.69156 | -116.99236 | 4125 ft | 198 kts | 254° |
| 2026-05-06 21:44 | 32.68979 | -117.00838 | 4155 ft | 195 kts | 281° |
| 2026-05-06 21:45 | 32.69286 | -117.02419 | 3875 ft | 199 kts | 286° |
| 2026-05-06 21:45 | 32.69702 | -117.03982 | 3593 ft | 198 kts | 291° |
| 2026-05-06 21:45 | 32.70144 | -117.05521 | 3262 ft | 196 kts | 288° |
| 2026-05-06 21:45 | 32.70518 | -117.07063 | 2882 ft | 192 kts | 286° |
| 2026-05-06 21:46 | 32.70882 | -117.08578 | 2497 ft | 190 kts | 286° |
| 2026-05-06 21:46 | 32.71247 | -117.10088 | 2074 ft | 191 kts | 285° |
| 2026-05-06 21:46 | 32.71597 | -117.11600 | 1656 ft | 189 kts | 285° |
| 2026-05-06 21:46 | 32.71943 | -117.13109 | 1182 ft | 190 kts | 286° |
| 2026-05-06 21:47 | 32.72305 | -117.14542 | 851 ft | 175 kts | 287° |
| 2026-05-06 21:47 | 32.72611 | -117.15842 | 547 ft | 152 kts | 285° |
| 2026-05-06 21:47 | 32.72878 | -117.16991 | 275 ft | 139 kts | 285° |
| 2026-05-06 21:47 | 32.73133 | -117.18024 | 74 ft | 122 kts | 286° |
| 2026-05-06 21:48 | 32.73340 | -117.18898 | 28 ft | 80 kts | 286° |
| 2026-05-06 21:48 | 32.73449 | -117.19402 | 29 ft | 25 kts | 258° |
| 2026-05-06 21:48 | 32.73413 | -117.19530 | 30 ft | 15 kts | 254° |
| 2026-05-06 21:48 | 32.73413 | -117.19626 | 29 ft | 12 kts | 286° |
| 2026-05-06 21:49 | 32.73437 | -117.19726 | 29 ft | 13 kts | 284° |
| 2026-05-06 21:49 | 32.73457 | -117.19811 | 30 ft | 8 kts | 285° |
| 2026-05-06 21:49 | 32.73473 | -117.19874 | 30 ft | 8 kts | 286° |
| 2026-05-06 21:49 | 32.73491 | -117.19949 | 29 ft | 11 kts | 286° |
| 2026-05-06 21:50 | 32.73515 | -117.20050 | 28 ft | 14 kts | 286° |
| 2026-05-06 21:50 | 32.73539 | -117.20146 | 29 ft | 11 kts | 286° |
| 2026-05-06 21:50 | 32.73535 | -117.20218 | 28 ft | 8 kts | 236° |
| 2026-05-06 21:50 | 32.73490 | -117.20244 | 27 ft | 9 kts | 196° |
| 2026-05-06 21:51 | 32.73407 | -117.20272 | 25 ft | 14 kts | 195° |
| 2026-05-06 21:51 | 32.73348 | -117.20284 | 30 ft | 4 kts | 218° |
| 2026-05-06 21:51 | 32.73341 | -117.20299 | 28 ft | 1 kts | 251° |
| 2026-05-06 21:51 | 32.73340 | -117.20308 | 26 ft | 2 kts | 268° |
| 2026-05-06 21:52 | 32.73341 | -117.20324 | 26 ft | 3 kts | 270° |
| 2026-05-06 21:52 | 32.73340 | -117.20339 | 27 ft | 1 kts | 268° |
| 2026-05-06 21:52 | 32.73340 | -117.20347 | 27 ft | 0 kts | 266° |